createdAt,value
2024-04-18T00:01:37.272Z,2.93
2024-04-18T00:04:04.348Z,2.97
2024-04-18T00:06:31.187Z,3.40
2024-04-18T00:08:57.893Z,2.67
2024-04-18T00:11:24.810Z,2.53
2024-04-18T00:13:51.562Z,3.10
2024-04-18T00:16:18.402Z,2.93
2024-04-18T00:18:45.306Z,3.73
2024-04-18T00:21:12.111Z,3.47
2024-04-18T00:23:56.131Z,2.90
2024-04-18T00:26:43.217Z,2.73
2024-04-18T00:29:10.115Z,2.63
2024-04-18T00:31:36.939Z,3.10
2024-04-18T00:34:03.658Z,2.83
2024-04-18T00:36:30.540Z,2.63
2024-04-18T00:42:28.661Z,2.80
2024-04-18T00:44:55.630Z,2.70
2024-04-18T00:47:22.406Z,4.13
2024-04-18T00:49:49.287Z,2.83
2024-04-18T00:52:20.432Z,3.20
2024-04-18T00:54:49.782Z,2.97
2024-04-18T00:57:18.342Z,2.97
2024-04-18T00:59:47.254Z,2.80
2024-04-18T01:02:14.201Z,3.20
2024-04-18T01:04:41.138Z,3.17
2024-04-18T01:07:07.921Z,2.80
2024-04-18T01:09:35.012Z,3.27
2024-04-18T01:12:02.290Z,2.90
2024-04-18T01:14:29.041Z,3.10
2024-04-18T01:16:55.894Z,3.67
2024-04-18T01:19:22.640Z,2.67
2024-04-18T01:24:43.988Z,2.33
2024-04-18T01:27:10.797Z,2.40
2024-04-18T01:29:37.499Z,2.40
2024-04-18T01:32:04.530Z,2.60
2024-04-18T01:34:31.627Z,2.93
2024-04-18T01:36:58.517Z,3.47
2024-04-18T01:39:25.281Z,2.60
2024-04-18T01:41:52.324Z,2.40
2024-04-18T01:44:19.084Z,2.30
2024-04-18T01:46:45.825Z,3.03
2024-04-18T01:49:12.696Z,2.30
2024-04-18T01:51:40.039Z,2.40
2024-04-18T01:57:42.305Z,2.13
2024-04-18T02:00:29.822Z,1.90
2024-04-18T02:02:58.393Z,1.90
2024-04-18T02:05:25.192Z,2.23
2024-04-18T02:07:52.009Z,2.47
2024-04-18T02:10:18.779Z,1.77
2024-04-18T02:12:45.566Z,2.27
2024-04-18T02:15:12.504Z,2.17
2024-04-18T02:17:39.308Z,2.03
2024-04-18T02:20:06.328Z,2.50
2024-04-18T02:22:33.064Z,1.63
2024-04-18T02:28:09.037Z,1.90
2024-04-18T02:30:35.781Z,1.60
2024-04-18T02:33:02.514Z,2.10
2024-04-18T02:35:29.275Z,3.00
2024-04-18T02:37:56.052Z,2.13
2024-04-18T02:40:41.232Z,1.97
2024-04-18T02:45:48.439Z,2.37
2024-04-18T02:48:15.447Z,2.10
2024-04-18T02:50:42.267Z,1.80
2024-04-18T02:53:09.115Z,1.93
2024-04-18T02:55:37.698Z,1.90
2024-04-18T02:58:04.640Z,2.63
2024-04-18T03:00:31.581Z,2.77
2024-04-18T03:02:58.368Z,2.73
2024-04-18T03:05:26.022Z,2.47
2024-04-18T03:07:55.940Z,2.27
2024-04-18T03:10:22.831Z,3.67
2024-04-18T03:12:53.014Z,3.17
2024-04-18T03:15:19.825Z,2.07
2024-04-18T03:17:48.713Z,2.17
2024-04-18T03:20:15.808Z,2.20
2024-04-18T03:25:26.827Z,3.30
2024-04-18T03:27:53.621Z,14.80
2024-04-18T03:30:22.562Z,9.17
2024-04-18T03:32:49.729Z,8.27
2024-04-18T03:35:16.604Z,4.40
2024-04-18T03:37:43.408Z,3.30
2024-04-18T03:40:10.189Z,4.17
2024-04-18T03:42:37.003Z,3.20
2024-04-18T03:45:03.999Z,3.50
2024-04-18T03:47:30.828Z,3.73
2024-04-18T03:49:57.614Z,6.20
2024-04-18T03:55:26.183Z,4.63
2024-04-18T03:57:54.935Z,4.33
2024-04-18T04:00:26.892Z,3.60
2024-04-18T04:02:57.720Z,2.93
2024-04-18T04:05:33.582Z,3.63
2024-04-18T04:08:03.898Z,3.27
2024-04-18T04:10:30.635Z,2.77
2024-04-18T04:12:58.503Z,3.40
2024-04-18T04:15:25.242Z,2.40
2024-04-18T04:17:52.131Z,2.57
2024-04-18T04:20:19.005Z,4.50
2024-04-18T04:22:45.739Z,4.13
2024-04-18T04:25:12.481Z,3.50
2024-04-18T04:27:39.247Z,3.13
2024-04-18T04:30:06.597Z,3.80
2024-04-18T04:32:33.441Z,3.80
2024-04-18T04:35:00.272Z,4.33
2024-04-18T04:37:27.000Z,12.00
2024-04-18T04:39:53.795Z,3.80
2024-04-18T04:42:20.604Z,5.90
2024-04-18T04:44:47.374Z,3.37
2024-04-18T04:47:14.554Z,3.53
2024-04-18T04:49:41.389Z,4.50
2024-04-18T04:52:09.643Z,3.33
2024-04-18T04:54:38.872Z,2.90
2024-04-18T04:57:06.029Z,4.50
2024-04-18T04:59:33.842Z,2.13
2024-04-18T05:02:00.596Z,3.03
2024-04-18T05:04:27.483Z,3.13
2024-04-18T05:06:54.226Z,3.10
2024-04-18T05:09:21.985Z,4.20
2024-04-18T05:11:49.213Z,2.63
2024-04-18T05:14:16.244Z,2.80
2024-04-18T05:16:43.034Z,4.00
2024-04-18T05:19:11.258Z,7.13
2024-04-18T05:21:38.445Z,3.87
2024-04-18T05:24:05.555Z,3.20
2024-04-18T05:26:34.929Z,4.47
2024-04-18T05:29:20.446Z,3.60
2024-04-18T05:31:48.798Z,3.00
2024-04-18T05:34:15.555Z,4.23
2024-04-18T05:36:42.346Z,9.17
2024-04-18T05:39:09.944Z,3.80
2024-04-18T05:41:38.033Z,4.30
2024-04-18T05:44:05.146Z,4.33
2024-04-18T05:46:31.936Z,3.97
2024-04-18T05:48:58.743Z,3.47
2024-04-18T05:51:25.548Z,5.87
2024-04-18T05:53:52.321Z,7.13
2024-04-18T05:56:19.140Z,5.73
2024-04-18T05:58:46.070Z,3.03
2024-04-18T06:01:13.996Z,3.00
2024-04-18T06:03:40.908Z,3.20
2024-04-18T06:06:07.681Z,2.30
2024-04-18T06:08:34.439Z,3.63
2024-04-18T06:11:01.183Z,1.93
2024-04-18T06:13:28.493Z,1.90
2024-04-18T06:15:55.544Z,4.00
2024-04-18T06:18:22.911Z,2.07
2024-04-18T06:20:53.181Z,2.80
2024-04-18T06:23:20.050Z,10.00
2024-04-18T06:25:46.830Z,7.73
2024-04-18T06:28:14.708Z,5.37
2024-04-18T06:30:42.192Z,4.23
2024-04-18T06:33:09.160Z,2.97
2024-04-18T06:35:35.991Z,3.00
2024-04-18T06:38:03.399Z,4.07
2024-04-18T06:40:30.114Z,2.87
2024-04-18T06:42:57.014Z,2.50
2024-04-18T06:45:25.143Z,2.23
2024-04-18T06:47:52.033Z,2.23
2024-04-18T06:50:22.026Z,3.07
2024-04-18T06:52:50.129Z,3.10
2024-04-18T06:55:16.826Z,3.13
2024-04-18T06:57:45.109Z,2.00
2024-04-18T07:00:12.384Z,2.47
2024-04-18T07:02:39.344Z,2.20
2024-04-18T07:05:06.365Z,2.50
2024-04-18T07:07:33.285Z,3.83
2024-04-18T07:10:01.806Z,2.40
2024-04-18T07:12:28.632Z,3.93
2024-04-18T07:14:55.452Z,2.10
2024-04-18T07:17:22.244Z,1.77
2024-04-18T07:19:48.986Z,1.50
2024-04-18T07:22:15.738Z,1.77
2024-04-18T07:24:45.748Z,1.70
2024-04-18T07:27:13.028Z,1.90
2024-04-18T07:29:39.799Z,2.10
2024-04-18T07:32:08.738Z,2.00
2024-04-18T07:34:36.213Z,2.57
2024-04-18T07:37:05.620Z,3.33
2024-04-18T07:39:32.435Z,1.93
2024-04-18T07:41:59.196Z,2.97
2024-04-18T07:44:26.130Z,2.13
2024-04-18T07:46:53.003Z,3.37
2024-04-18T07:49:19.767Z,1.70
2024-04-18T07:51:46.706Z,2.67
2024-04-18T07:54:13.502Z,1.77
2024-04-18T07:56:40.888Z,2.03
2024-04-18T07:59:09.603Z,1.73
2024-04-18T08:01:38.319Z,2.20
2024-04-18T08:04:27.491Z,1.97
2024-04-18T08:06:57.060Z,2.37
2024-04-18T08:09:27.946Z,1.93
2024-04-18T08:12:22.825Z,3.40
2024-04-18T08:14:46.287Z,3.13
2024-04-18T08:17:15.595Z,2.60
2024-04-18T08:19:42.466Z,2.47
2024-04-18T08:22:09.270Z,2.07
2024-04-18T08:24:37.096Z,1.50
2024-04-18T08:27:04.217Z,1.17
2024-04-18T08:29:31.201Z,1.70
2024-04-18T08:31:58.037Z,1.57
2024-04-18T08:34:25.088Z,3.03
2024-04-18T08:36:52.354Z,2.70
2024-04-18T08:39:19.645Z,2.13
2024-04-18T08:41:47.503Z,0.97
2024-04-18T08:44:16.032Z,1.50
2024-04-18T08:46:45.733Z,2.33
2024-04-18T08:49:14.946Z,2.07
2024-04-18T08:51:45.439Z,2.30
2024-04-18T08:54:12.264Z,3.07
2024-04-18T08:56:43.580Z,2.30
2024-04-18T08:59:11.238Z,3.23
2024-04-18T09:01:38.104Z,1.50
2024-04-18T09:04:04.965Z,1.30
2024-04-18T09:06:34.298Z,1.60
2024-04-18T09:09:02.046Z,1.67
2024-04-18T09:11:28.852Z,2.13
2024-04-18T09:13:55.625Z,2.13
2024-04-18T09:16:24.532Z,1.10
2024-04-18T09:18:52.249Z,1.47
2024-04-18T09:21:21.432Z,1.43
2024-04-18T09:23:48.229Z,1.17
2024-04-18T09:26:14.982Z,1.30
2024-04-18T09:28:42.128Z,0.93
2024-04-18T09:31:10.551Z,1.07
2024-04-18T09:33:37.628Z,1.50
2024-04-18T09:36:05.771Z,2.23
2024-04-18T09:38:35.855Z,1.23
2024-04-18T09:41:13.328Z,1.40
2024-04-18T09:43:56.853Z,1.77
2024-04-18T09:46:25.937Z,1.90
2024-04-18T09:48:55.095Z,4.53
2024-04-18T09:51:23.016Z,6.67
2024-04-18T09:53:50.749Z,2.07
2024-04-18T09:56:18.990Z,1.67
2024-04-18T09:58:47.106Z,2.27
2024-04-18T10:01:15.797Z,1.30
2024-04-18T10:03:43.783Z,1.93
2024-04-18T10:06:12.428Z,1.30
2024-04-18T10:08:43.085Z,1.40
2024-04-18T10:11:11.753Z,1.30
2024-04-18T10:13:38.667Z,1.40
2024-04-18T10:16:11.380Z,1.30
2024-04-18T10:18:39.839Z,1.70
2024-04-18T10:21:13.561Z,1.30
2024-04-18T10:23:48.718Z,1.20
2024-04-18T10:26:16.335Z,1.20
2024-04-18T10:28:43.784Z,1.40
2024-04-18T10:31:12.428Z,1.50
2024-04-18T10:33:42.263Z,5.03
2024-04-18T10:36:15.837Z,2.67
2024-04-18T10:38:45.337Z,1.57
2024-04-18T10:41:18.048Z,1.27
2024-04-18T10:43:45.910Z,2.60
2024-04-18T10:46:14.057Z,1.20
2024-04-18T10:48:42.532Z,1.83
2024-04-18T10:51:09.671Z,1.47
2024-04-18T10:53:38.075Z,1.90
2024-04-18T10:56:05.470Z,1.50
2024-04-18T10:58:32.884Z,2.37
2024-04-18T11:01:00.845Z,1.60
2024-04-18T11:03:29.365Z,2.17
2024-04-18T11:05:59.676Z,2.50
2024-04-18T11:08:28.571Z,1.73
2024-04-18T11:10:56.977Z,4.13
2024-04-18T11:13:23.991Z,6.07
2024-04-18T11:15:50.804Z,1.83
2024-04-18T11:18:18.110Z,2.30
2024-04-18T11:20:45.477Z,2.40
2024-04-18T11:23:17.174Z,2.10
2024-04-18T11:25:46.853Z,2.20
2024-04-18T11:28:13.781Z,1.50
2024-04-18T11:30:47.570Z,1.50
2024-04-18T11:33:23.947Z,1.40
2024-04-18T11:35:51.520Z,2.23
2024-04-18T11:38:18.855Z,2.30
2024-04-18T11:40:45.668Z,1.70
2024-04-18T11:43:12.424Z,2.00
2024-04-18T11:45:39.726Z,2.30
2024-04-18T11:48:07.392Z,1.53
2024-04-18T11:50:34.316Z,1.93
2024-04-18T11:53:01.109Z,9.20
2024-04-18T11:55:28.084Z,5.20
2024-04-18T11:57:54.998Z,6.20
2024-04-18T12:00:21.847Z,2.90
2024-04-18T12:02:48.687Z,3.43
2024-04-18T12:05:15.708Z,1.90
2024-04-18T12:07:42.467Z,1.70
2024-04-18T12:10:09.199Z,1.77
2024-04-18T12:12:36.284Z,1.90
2024-04-18T12:15:03.218Z,2.00
2024-04-18T12:17:30.533Z,1.70
2024-04-18T12:19:57.458Z,1.40
2024-04-18T12:22:24.259Z,2.10
2024-04-18T12:24:51.047Z,1.50
2024-04-18T12:27:17.883Z,1.40
2024-04-18T12:29:48.376Z,3.37
2024-04-18T12:32:22.107Z,1.50
2024-04-18T12:36:11.583Z,1.40
2024-04-18T12:38:38.357Z,1.13
2024-04-18T12:48:01.693Z,1.27
2024-04-18T12:50:29.035Z,6.23
2024-04-18T12:52:55.874Z,1.53
2024-04-18T12:55:22.664Z,1.77
2024-04-18T12:57:49.897Z,2.23
2024-04-18T13:00:20.132Z,1.43
2024-04-18T13:02:46.960Z,3.60
2024-04-18T13:05:13.856Z,4.53
2024-04-18T13:07:41.263Z,1.90
2024-04-18T13:10:08.062Z,1.93
2024-04-18T13:12:35.012Z,2.57
2024-04-18T13:15:02.088Z,2.10
2024-04-18T13:17:29.072Z,1.70
2024-04-18T13:19:55.951Z,2.33
2024-04-18T13:22:22.686Z,1.80
2024-04-18T13:24:49.513Z,1.73
2024-04-18T13:27:16.457Z,1.63
2024-04-18T13:29:43.346Z,2.03
2024-04-18T13:32:10.229Z,3.00
2024-04-18T13:34:37.007Z,1.60
2024-04-18T13:37:03.734Z,1.63
2024-04-18T13:39:30.586Z,1.83
2024-04-18T13:41:57.450Z,1.60
2024-04-18T13:44:24.185Z,1.80
2024-04-18T13:46:52.982Z,2.13
2024-04-18T13:49:19.739Z,2.47
2024-04-18T13:51:46.504Z,2.23
2024-04-18T13:54:13.322Z,3.10
2024-04-18T13:56:40.150Z,2.10
2024-04-18T13:59:06.933Z,1.90
2024-04-18T14:01:33.890Z,2.27
2024-04-18T14:04:00.756Z,3.90
2024-04-18T14:06:27.621Z,4.00
2024-04-18T14:08:54.384Z,3.90
2024-04-18T14:11:21.173Z,2.27
2024-04-18T14:13:47.900Z,2.07
2024-04-18T14:16:33.907Z,3.17
2024-04-18T14:19:00.667Z,3.17
2024-04-18T14:21:27.524Z,3.43
2024-04-18T14:23:54.321Z,2.40
2024-04-18T14:26:21.203Z,2.20
2024-04-18T14:28:48.168Z,2.40
2024-04-18T14:31:15.480Z,2.50
2024-04-18T14:33:42.355Z,2.47
2024-04-18T14:36:09.573Z,3.10
2024-04-18T14:38:36.357Z,7.97
2024-04-18T14:41:09.908Z,2.87
2024-04-18T14:43:39.150Z,26.83
2024-04-18T14:46:06.020Z,1.50
2024-04-18T14:48:34.962Z,1.90
2024-04-18T14:51:01.892Z,2.23
2024-04-18T14:53:31.898Z,1.47
2024-04-18T14:55:59.243Z,2.43
2024-04-18T14:58:26.084Z,1.60
2024-04-18T15:00:54.716Z,1.03
2024-04-18T15:03:22.666Z,1.80
2024-04-18T15:05:54.469Z,1.87
2024-04-18T15:08:21.428Z,1.77
2024-04-18T15:10:48.551Z,1.13
2024-04-18T15:13:15.585Z,1.33
2024-04-18T15:15:42.701Z,1.40
2024-04-18T15:18:10.020Z,1.50
2024-04-18T15:20:37.033Z,2.57
2024-04-18T15:23:04.147Z,1.60
2024-04-18T15:25:31.027Z,1.17
2024-04-18T15:27:57.842Z,1.57
2024-04-18T15:30:24.964Z,1.57
2024-04-18T15:32:51.798Z,2.33
2024-04-18T15:35:18.611Z,1.37
2024-04-18T15:37:45.339Z,1.63
2024-04-18T15:40:14.463Z,1.73
2024-04-18T15:42:42.884Z,3.00
2024-04-18T15:45:09.672Z,2.83
2024-04-18T15:47:36.798Z,2.50
2024-04-18T15:50:04.138Z,3.40
2024-04-18T15:52:34.040Z,4.00
2024-04-18T15:55:12.192Z,2.97
2024-04-18T15:57:44.695Z,3.87
2024-04-18T16:00:11.882Z,1.40
2024-04-18T16:03:15.378Z,1.60
2024-04-18T16:05:50.835Z,1.20
2024-04-18T16:08:26.591Z,2.43
2024-04-18T16:11:05.520Z,1.63
2024-04-18T16:13:43.567Z,1.43
2024-04-18T16:16:10.721Z,2.77
2024-04-18T16:18:39.753Z,4.47
2024-04-18T16:21:09.702Z,1.93
2024-04-18T16:23:36.632Z,2.10
2024-04-18T16:26:03.470Z,2.33
2024-04-18T16:28:30.252Z,2.37
2024-04-18T16:30:58.443Z,1.63
2024-04-18T16:33:25.397Z,2.30
2024-04-18T16:35:52.206Z,2.63
2024-04-18T16:38:19.014Z,3.30
2024-04-18T16:40:48.883Z,3.70
2024-04-18T16:43:15.631Z,42.80
2024-04-18T16:45:48.285Z,8.57
2024-04-18T16:48:15.202Z,7.03
2024-04-18T16:50:42.171Z,5.90
2024-04-18T16:53:08.953Z,2.83
2024-04-18T16:55:35.841Z,2.57
2024-04-18T16:58:02.682Z,5.20
2024-04-18T17:00:29.426Z,40.27
2024-04-18T17:02:56.285Z,5.27
2024-04-18T17:05:25.354Z,5.30
2024-04-18T17:07:52.324Z,6.03
2024-04-18T17:10:20.842Z,3.70
2024-04-18T17:12:48.653Z,5.03
2024-04-18T17:15:15.764Z,3.83
2024-04-18T17:17:48.050Z,28.67
2024-04-18T17:20:14.997Z,5.00
2024-04-18T17:22:41.749Z,5.80
2024-04-18T17:25:10.009Z,6.00
2024-04-18T17:27:36.996Z,8.60
2024-04-18T17:30:04.197Z,9.03
2024-04-18T17:32:30.975Z,5.40
2024-04-18T17:34:59.279Z,4.27
2024-04-18T17:37:35.856Z,4.70
2024-04-18T17:40:10.410Z,4.23
2024-04-18T17:45:53.058Z,7.00
2024-04-18T17:48:32.350Z,6.17
2024-04-18T17:51:02.060Z,7.70
2024-04-18T17:56:48.304Z,8.00
2024-04-18T17:59:15.754Z,6.77
2024-04-18T18:01:44.271Z,6.70
2024-04-18T18:04:12.790Z,5.70
2024-04-18T18:06:40.272Z,7.13
2024-04-18T18:09:07.275Z,5.30
2024-04-18T18:11:34.199Z,7.23
2024-04-18T18:14:02.019Z,7.67
2024-04-18T18:16:32.089Z,12.70
2024-04-18T18:19:01.511Z,21.23
2024-04-18T18:21:28.589Z,48.57
2024-04-18T18:23:55.411Z,46.63
2024-04-18T18:26:22.422Z,28.13
2024-04-18T18:28:49.143Z,18.63
2024-04-18T18:31:15.928Z,28.30
2024-04-18T18:33:45.785Z,28.97
2024-04-18T18:36:13.182Z,28.77
2024-04-18T18:38:42.229Z,28.60
2024-04-18T18:41:09.007Z,22.23
2024-04-18T18:43:36.214Z,20.37
2024-04-18T18:46:03.009Z,21.97
2024-04-18T18:48:29.946Z,21.67
2024-04-18T18:50:56.808Z,28.80
2024-04-18T18:53:23.608Z,34.27
2024-04-18T18:55:50.552Z,36.17
2024-04-18T18:58:17.314Z,36.80
2024-04-18T19:00:44.177Z,18.13
2024-04-18T19:03:11.222Z,16.50
2024-04-18T19:05:48.493Z,19.25
2024-04-18T19:08:15.208Z,21.03
2024-04-18T19:10:42.020Z,20.23
2024-04-18T19:13:08.771Z,25.60
2024-04-18T19:15:35.499Z,24.47
2024-04-18T19:18:02.236Z,26.60
2024-04-18T19:20:29.020Z,24.10
2024-04-18T19:22:55.890Z,21.23
2024-04-18T19:25:22.706Z,13.47
2024-04-18T19:27:49.494Z,12.83
2024-04-18T19:30:16.313Z,9.40
2024-04-18T19:32:43.134Z,8.20
2024-04-18T19:35:12.964Z,8.60
2024-04-18T19:37:41.127Z,13.50
2024-04-18T19:40:08.400Z,14.20
2024-04-18T19:42:35.210Z,21.07
2024-04-18T19:45:01.989Z,23.03
2024-04-18T19:47:28.752Z,21.90
2024-04-18T19:49:55.522Z,12.70
2024-04-18T19:52:22.624Z,11.07
2024-04-18T19:54:49.519Z,8.93
2024-04-18T19:57:16.320Z,8.37
2024-04-18T19:59:45.714Z,13.87
2024-04-18T20:02:13.521Z,14.60
2024-04-18T20:04:41.503Z,7.97
2024-04-18T20:07:08.255Z,8.03
2024-04-18T20:09:35.065Z,8.00
2024-04-18T20:12:08.797Z,8.57
2024-04-18T20:14:35.695Z,7.17
2024-04-18T20:17:03.162Z,6.60
2024-04-18T20:19:30.080Z,7.97
2024-04-18T20:21:56.943Z,6.13
2024-04-18T20:24:23.875Z,6.97
2024-04-18T20:26:50.702Z,5.80
2024-04-18T20:29:17.499Z,6.23
2024-04-18T20:31:44.208Z,5.67
2024-04-18T20:34:10.956Z,6.43
2024-04-18T20:36:38.045Z,4.90
2024-04-18T20:39:05.092Z,6.23
2024-04-18T20:41:31.998Z,6.77
2024-04-18T20:43:59.773Z,7.20
2024-04-18T20:46:29.800Z,7.93
2024-04-18T20:48:56.776Z,7.27
2024-04-18T20:51:24.048Z,8.03
2024-04-18T20:53:50.784Z,9.30
2024-04-18T20:56:17.549Z,7.07
2024-04-18T20:58:44.352Z,7.00
2024-04-18T21:01:11.230Z,5.10
2024-04-18T21:03:38.048Z,7.27
2024-04-18T21:06:05.027Z,5.40
2024-04-18T21:08:31.764Z,6.13
2024-04-18T21:10:58.592Z,6.37
2024-04-18T21:13:25.488Z,6.13
2024-04-18T21:16:02.103Z,8.67
2024-04-18T21:18:29.537Z,6.73
2024-04-18T21:20:57.336Z,6.70
2024-04-18T21:23:24.152Z,9.00
2024-04-18T21:25:59.886Z,7.77
2024-04-18T21:28:29.015Z,6.83
2024-04-18T21:31:02.908Z,7.90
2024-04-18T21:33:30.703Z,6.27
2024-04-18T21:35:57.615Z,5.87
2024-04-18T21:38:24.283Z,7.30
2024-04-18T21:40:51.503Z,6.07
2024-04-18T21:43:18.300Z,6.73
2024-04-18T21:45:45.056Z,6.57
2024-04-18T21:48:12.014Z,6.80
2024-04-18T21:50:38.919Z,6.03
2024-04-18T21:53:05.635Z,8.57
2024-04-18T21:55:32.478Z,9.53
2024-04-18T21:57:59.319Z,11.27
2024-04-18T22:00:27.106Z,10.00
2024-04-18T22:02:53.964Z,11.90
2024-04-18T22:05:20.652Z,14.87
2024-04-18T22:07:47.481Z,13.03
2024-04-18T22:10:14.416Z,12.93
2024-04-18T22:12:41.165Z,28.00
2024-04-18T22:15:08.295Z,15.87
2024-04-18T22:17:35.070Z,21.27
2024-04-18T22:20:02.513Z,14.80
2024-04-18T22:22:29.274Z,15.43
2024-04-18T22:24:56.041Z,12.37
2024-04-18T22:27:23.108Z,13.63
2024-04-18T22:29:49.830Z,13.53
2024-04-18T22:32:16.724Z,15.83
2024-04-18T22:34:46.670Z,17.27
2024-04-18T22:37:13.441Z,16.67
2024-04-18T22:39:40.308Z,13.07
2024-04-18T22:42:07.188Z,13.83
2024-04-18T22:44:33.958Z,13.10
2024-04-18T22:47:00.844Z,9.87
2024-04-18T22:49:28.050Z,11.67
2024-04-18T22:51:54.955Z,11.20
2024-04-18T22:54:21.947Z,12.23
2024-04-18T22:56:48.651Z,12.63
2024-04-18T22:59:15.388Z,13.17
2024-04-18T23:01:42.303Z,13.53
2024-04-18T23:04:09.284Z,16.90
2024-04-18T23:06:36.120Z,14.80
2024-04-18T23:09:02.926Z,16.83
2024-04-18T23:11:30.010Z,17.10
2024-04-18T23:13:56.840Z,16.23
2024-04-18T23:16:24.118Z,14.07
2024-04-18T23:18:50.946Z,16.23
2024-04-18T23:21:18.005Z,14.00
2024-04-18T23:23:44.905Z,14.83
2024-04-18T23:26:11.647Z,16.33
2024-04-18T23:31:54.694Z,15.50
2024-04-18T23:34:21.673Z,16.70
2024-04-18T23:36:48.468Z,16.33
2024-04-18T23:39:15.316Z,21.83
2024-04-18T23:41:42.280Z,21.33
2024-04-18T23:44:08.988Z,16.53
2024-04-18T23:46:35.741Z,12.83
2024-04-18T23:49:02.654Z,15.47
2024-04-18T23:51:29.444Z,12.70
2024-04-18T23:53:56.224Z,13.83
2024-04-18T23:56:23.055Z,13.67
2024-04-18T23:58:49.738Z,14.87
